CYAZ/YAZ METAR and TAF weather

Enter ICAO airport designator
Station Type Date Time Source
CYAZ METAR 2021/09/24 01:00 UTC NOAA

CYAZ 240100Z 29006KT 15SM FEW250 15/10 A3029 RMK CI2 LAST STFD OBS/NXT 241300UTC SLP257


Station Type Date Time Source
CYAZ Decoded METAR 2021/09/24 01:00 UTC NOAA

Tofino Airport, Canada (CYAZ) 49-05N 125-46W
Sep 23, 2021 - 09:00 PM EDT / 2021.09.24 0100 UTC
Wind: from the WNW (290 degrees) at 7 MPH (6 KT):0
Visibility: 15 mile(s):0
Sky conditions: mostly clear
Temperature: 59 F (15 C)
Dew Point: 50 F (10 C)
Relative Humidity: 72%
Pressure (altimeter): 30.29 in. Hg (1025 hPa)
ob: CYAZ 240100Z 29006KT 15SM FEW250 15/10 A3029 RMK CI2 LAST STFD OBS/NXT 241300UTC SLP257
cycle: 1

Station Type Date Time Source
CYAZ TAF 2021/09/23 22:06 UTC NOAA

TAF
AMD TAF
AMD CYAZ 232203Z 2322/2401 29010KT P6SM FEW015 SCT120
RMK NXT FCST WILL BE ISSUED AT 241445Z

Example: see airport list